sensor_id;sensor_type;location;lat;lon;timestamp;temperature;humidity
8611;DHT22;4343;53.648;10.098;2023-05-18T00:01:31;8.70;99.90
8611;DHT22;4343;53.648;10.098;2023-05-18T00:03:56;8.70;99.90
8611;DHT22;4343;53.648;10.098;2023-05-18T00:06:22;8.60;99.90
8611;DHT22;4343;53.648;10.098;2023-05-18T00:08:50;8.60;99.90
8611;DHT22;4343;53.648;10.098;2023-05-18T00:11:16;8.60;99.90
8611;DHT22;4343;53.648;10.098;2023-05-18T00:13:41;8.50;99.90
8611;DHT22;4343;53.648;10.098;2023-05-18T00:16:07;8.50;99.90
8611;DHT22;4343;53.648;10.098;2023-05-18T00:18:32;8.50;99.90
8611;DHT22;4343;53.648;10.098;2023-05-18T00:20:59;8.40;99.90
8611;DHT22;4343;53.648;10.098;2023-05-18T00:23:31;8.40;99.90
8611;DHT22;4343;53.648;10.098;2023-05-18T00:26:00;8.30;99.90
8611;DHT22;4343;53.648;10.098;2023-05-18T00:28:27;8.30;99.90
8611;DHT22;4343;53.648;10.098;2023-05-18T00:30:53;8.40;99.90
8611;DHT22;4343;53.648;10.098;2023-05-18T00:33:19;8.40;99.90
8611;DHT22;4343;53.648;10.098;2023-05-18T00:35:45;8.40;99.90
8611;DHT22;4343;53.648;10.098;2023-05-18T00:38:10;8.40;99.90
8611;DHT22;4343;53.648;10.098;2023-05-18T00:40:38;8.40;99.90
8611;DHT22;4343;53.648;10.098;2023-05-18T00:43:03;8.40;99.90
8611;DHT22;4343;53.648;10.098;2023-05-18T00:45:29;8.40;99.90
8611;DHT22;4343;53.648;10.098;2023-05-18T00:47:54;8.40;99.90
8611;DHT22;4343;53.648;10.098;2023-05-18T00:50:20;8.40;99.90
8611;DHT22;4343;53.648;10.098;2023-05-18T00:52:45;8.40;99.90
8611;DHT22;4343;53.648;10.098;2023-05-18T00:55:12;8.40;99.90
8611;DHT22;4343;53.648;10.098;2023-05-18T00:57:39;8.40;99.90
8611;DHT22;4343;53.648;10.098;2023-05-18T01:00:07;8.40;99.90
8611;DHT22;4343;53.648;10.098;2023-05-18T01:02:35;8.40;99.90
8611;DHT22;4343;53.648;10.098;2023-05-18T01:05:02;8.40;99.90
8611;DHT22;4343;53.648;10.098;2023-05-18T01:07:27;8.40;99.90
8611;DHT22;4343;53.648;10.098;2023-05-18T01:09:54;8.40;99.90
8611;DHT22;4343;53.648;10.098;2023-05-18T01:12:45;8.40;99.90
8611;DHT22;4343;53.648;10.098;2023-05-18T01:15:56;8.40;99.90
8611;DHT22;4343;53.648;10.098;2023-05-18T01:20:48;8.40;99.90
8611;DHT22;4343;53.648;10.098;2023-05-18T01:23:56;8.40;99.90
8611;DHT22;4343;53.648;10.098;2023-05-18T01:26:21;8.30;99.90
8611;DHT22;4343;53.648;10.098;2023-05-18T01:28:50;8.30;99.90
8611;DHT22;4343;53.648;10.098;2023-05-18T01:31:16;8.30;99.90
8611;DHT22;4343;53.648;10.098;2023-05-18T01:33:42;8.30;99.90
8611;DHT22;4343;53.648;10.098;2023-05-18T01:36:09;8.30;99.90
8611;DHT22;4343;53.648;10.098;2023-05-18T01:38:35;8.30;99.90
8611;DHT22;4343;53.648;10.098;2023-05-18T01:41:21;8.30;99.90
8611;DHT22;4343;53.648;10.098;2023-05-18T01:49:35;8.30;99.90
8611;DHT22;4343;53.648;10.098;2023-05-18T01:52:06;8.30;99.90
8611;DHT22;4343;53.648;10.098;2023-05-18T01:54:32;8.30;99.90
8611;DHT22;4343;53.648;10.098;2023-05-18T01:57:00;8.30;99.90
8611;DHT22;4343;53.648;10.098;2023-05-18T01:59:27;8.20;99.90
8611;DHT22;4343;53.648;10.098;2023-05-18T02:01:57;8.20;99.90
8611;DHT22;4343;53.648;10.098;2023-05-18T02:04:23;8.20;99.90
8611;DHT22;4343;53.648;10.098;2023-05-18T02:06:48;8.20;99.90
8611;DHT22;4343;53.648;10.098;2023-05-18T02:09:14;8.20;99.90
8611;DHT22;4343;53.648;10.098;2023-05-18T02:11:39;8.10;99.90
8611;DHT22;4343;53.648;10.098;2023-05-18T02:14:05;8.10;99.90
8611;DHT22;4343;53.648;10.098;2023-05-18T02:16:31;8.20;99.90
8611;DHT22;4343;53.648;10.098;2023-05-18T02:18:56;8.10;99.90
8611;DHT22;4343;53.648;10.098;2023-05-18T02:21:22;8.10;99.90
8611;DHT22;4343;53.648;10.098;2023-05-18T02:23:47;8.00;99.90
8611;DHT22;4343;53.648;10.098;2023-05-18T02:26:13;8.00;99.90
8611;DHT22;4343;53.648;10.098;2023-05-18T02:28:38;8.00;99.90
8611;DHT22;4343;53.648;10.098;2023-05-18T02:31:06;7.90;99.90
8611;DHT22;4343;53.648;10.098;2023-05-18T02:33:32;7.90;99.90
8611;DHT22;4343;53.648;10.098;2023-05-18T02:36:05;7.90;99.90
8611;DHT22;4343;53.648;10.098;2023-05-18T02:38:31;7.90;99.90
8611;DHT22;4343;53.648;10.098;2023-05-18T02:40:57;7.90;99.90
8611;DHT22;4343;53.648;10.098;2023-05-18T02:43:22;7.80;99.90
8611;DHT22;4343;53.648;10.098;2023-05-18T02:45:48;7.80;99.90
8611;DHT22;4343;53.648;10.098;2023-05-18T02:48:13;7.80;99.90
8611;DHT22;4343;53.648;10.098;2023-05-18T02:50:39;7.80;99.90
8611;DHT22;4343;53.648;10.098;2023-05-18T02:53:04;7.80;99.90
8611;DHT22;4343;53.648;10.098;2023-05-18T02:55:30;7.80;99.90
8611;DHT22;4343;53.648;10.098;2023-05-18T02:57:55;7.80;99.90
8611;DHT22;4343;53.648;10.098;2023-05-18T03:00:21;7.80;99.90
8611;DHT22;4343;53.648;10.098;2023-05-18T03:02:48;7.70;99.90
8611;DHT22;4343;53.648;10.098;2023-05-18T03:05:15;7.70;99.90
8611;DHT22;4343;53.648;10.098;2023-05-18T03:07:41;7.70;99.90
8611;DHT22;4343;53.648;10.098;2023-05-18T03:10:10;7.70;99.90
8611;DHT22;4343;53.648;10.098;2023-05-18T03:12:35;7.70;99.90
8611;DHT22;4343;53.648;10.098;2023-05-18T03:15:01;7.70;99.90
8611;DHT22;4343;53.648;10.098;2023-05-18T03:17:26;7.70;99.90
8611;DHT22;4343;53.648;10.098;2023-05-18T03:19:52;7.70;99.90
8611;DHT22;4343;53.648;10.098;2023-05-18T03:22:17;7.70;99.90
8611;DHT22;4343;53.648;10.098;2023-05-18T03:24:43;7.70;99.90
8611;DHT22;4343;53.648;10.098;2023-05-18T03:27:09;7.70;99.90
8611;DHT22;4343;53.648;10.098;2023-05-18T03:29:37;7.70;99.90
8611;DHT22;4343;53.648;10.098;2023-05-18T03:32:02;7.70;99.90
8611;DHT22;4343;53.648;10.098;2023-05-18T03:34:28;7.70;99.90
8611;DHT22;4343;53.648;10.098;2023-05-18T03:36:54;7.70;99.90
8611;DHT22;4343;53.648;10.098;2023-05-18T03:39:19;7.60;99.90
8611;DHT22;4343;53.648;10.098;2023-05-18T03:41:46;7.70;99.90
8611;DHT22;4343;53.648;10.098;2023-05-18T03:44:11;7.70;99.90
8611;DHT22;4343;53.648;10.098;2023-05-18T03:46:37;7.70;99.90
8611;DHT22;4343;53.648;10.098;2023-05-18T03:49:02;7.70;99.90
8611;DHT22;4343;53.648;10.098;2023-05-18T03:51:29;7.70;99.90
8611;DHT22;4343;53.648;10.098;2023-05-18T03:53:56;7.70;99.90
8611;DHT22;4343;53.648;10.098;2023-05-18T03:56:21;7.70;99.90
8611;DHT22;4343;53.648;10.098;2023-05-18T03:58:47;7.70;99.90
8611;DHT22;4343;53.648;10.098;2023-05-18T04:01:13;7.70;99.90
8611;DHT22;4343;53.648;10.098;2023-05-18T04:03:38;7.70;99.90
8611;DHT22;4343;53.648;10.098;2023-05-18T04:06:05;7.70;99.90
8611;DHT22;4343;53.648;10.098;2023-05-18T04:08:31;7.70;99.90
8611;DHT22;4343;53.648;10.098;2023-05-18T04:10:59;7.80;99.90
8611;DHT22;4343;53.648;10.098;2023-05-18T04:13:24;7.80;99.90
8611;DHT22;4343;53.648;10.098;2023-05-18T04:15:50;7.80;99.90
8611;DHT22;4343;53.648;10.098;2023-05-18T04:18:15;7.80;99.90
8611;DHT22;4343;53.648;10.098;2023-05-18T04:20:41;7.80;99.90
8611;DHT22;4343;53.648;10.098;2023-05-18T04:23:10;7.90;99.90
8611;DHT22;4343;53.648;10.098;2023-05-18T04:25:36;7.90;99.90
8611;DHT22;4343;53.648;10.098;2023-05-18T04:28:03;7.90;99.90
8611;DHT22;4343;53.648;10.098;2023-05-18T04:30:29;7.90;99.90
8611;DHT22;4343;53.648;10.098;2023-05-18T04:32:55;7.90;99.90
8611;DHT22;4343;53.648;10.098;2023-05-18T04:35:22;7.90;99.90
8611;DHT22;4343;53.648;10.098;2023-05-18T04:37:50;8.00;99.90
8611;DHT22;4343;53.648;10.098;2023-05-18T04:40:16;8.00;99.90
8611;DHT22;4343;53.648;10.098;2023-05-18T04:42:42;8.00;99.90
8611;DHT22;4343;53.648;10.098;2023-05-18T04:45:16;8.00;99.90
8611;DHT22;4343;53.648;10.098;2023-05-18T04:47:43;8.10;99.90
8611;DHT22;4343;53.648;10.098;2023-05-18T04:50:15;8.00;99.90
8611;DHT22;4343;53.648;10.098;2023-05-18T04:52:45;8.10;99.90
8611;DHT22;4343;53.648;10.098;2023-05-18T04:55:14;8.10;99.90
8611;DHT22;4343;53.648;10.098;2023-05-18T04:57:40;8.10;99.90
8611;DHT22;4343;53.648;10.098;2023-05-18T05:00:07;8.10;99.90
8611;DHT22;4343;53.648;10.098;2023-05-18T05:02:34;8.20;99.90
8611;DHT22;4343;53.648;10.098;2023-05-18T05:04:59;8.20;99.90
8611;DHT22;4343;53.648;10.098;2023-05-18T05:07:25;8.30;99.90
8611;DHT22;4343;53.648;10.098;2023-05-18T05:09:50;8.30;99.90
8611;DHT22;4343;53.648;10.098;2023-05-18T05:12:16;8.30;99.90
8611;DHT22;4343;53.648;10.098;2023-05-18T05:14:41;8.30;99.90
8611;DHT22;4343;53.648;10.098;2023-05-18T05:17:07;8.40;99.90
8611;DHT22;4343;53.648;10.098;2023-05-18T05:19:32;8.40;99.90
8611;DHT22;4343;53.648;10.098;2023-05-18T05:21:58;8.40;99.90
8611;DHT22;4343;53.648;10.098;2023-05-18T05:24:23;8.40;99.90
8611;DHT22;4343;53.648;10.098;2023-05-18T05:26:49;8.50;99.90
8611;DHT22;4343;53.648;10.098;2023-05-18T05:29:15;8.50;99.90
8611;DHT22;4343;53.648;10.098;2023-05-18T05:31:40;8.50;99.90
8611;DHT22;4343;53.648;10.098;2023-05-18T05:34:06;8.60;99.90
8611;DHT22;4343;53.648;10.098;2023-05-18T05:36:31;8.60;99.90
8611;DHT22;4343;53.648;10.098;2023-05-18T05:38:58;8.60;99.90
8611;DHT22;4343;53.648;10.098;2023-05-18T05:41:23;8.60;99.90
8611;DHT22;4343;53.648;10.098;2023-05-18T05:43:49;8.60;99.90
8611;DHT22;4343;53.648;10.098;2023-05-18T05:46:15;8.70;99.90
8611;DHT22;4343;53.648;10.098;2023-05-18T05:48:41;8.70;99.90
8611;DHT22;4343;53.648;10.098;2023-05-18T05:51:07;8.70;99.90
8611;DHT22;4343;53.648;10.098;2023-05-18T05:53:32;8.70;99.90
8611;DHT22;4343;53.648;10.098;2023-05-18T05:55:58;8.70;99.90
8611;DHT22;4343;53.648;10.098;2023-05-18T05:58:24;8.80;99.90
8611;DHT22;4343;53.648;10.098;2023-05-18T06:00:49;8.80;99.90
8611;DHT22;4343;53.648;10.098;2023-05-18T06:03:15;8.80;99.90
8611;DHT22;4343;53.648;10.098;2023-05-18T06:05:40;8.80;99.90
8611;DHT22;4343;53.648;10.098;2023-05-18T06:08:06;8.80;99.90
8611;DHT22;4343;53.648;10.098;2023-05-18T06:10:31;8.90;99.90
8611;DHT22;4343;53.648;10.098;2023-05-18T06:12:57;8.90;99.90
8611;DHT22;4343;53.648;10.098;2023-05-18T06:15:23;8.90;99.90
8611;DHT22;4343;53.648;10.098;2023-05-18T06:17:48;8.90;99.90
8611;DHT22;4343;53.648;10.098;2023-05-18T06:20:14;8.90;99.90
8611;DHT22;4343;53.648;10.098;2023-05-18T06:22:39;8.90;99.90
8611;DHT22;4343;53.648;10.098;2023-05-18T06:25:05;9.00;99.90
8611;DHT22;4343;53.648;10.098;2023-05-18T06:27:31;9.00;99.90
8611;DHT22;4343;53.648;10.098;2023-05-18T06:29:56;9.00;99.90
8611;DHT22;4343;53.648;10.098;2023-05-18T06:32:22;9.10;99.90
8611;DHT22;4343;53.648;10.098;2023-05-18T06:34:47;9.10;99.90
8611;DHT22;4343;53.648;10.098;2023-05-18T06:37:16;9.20;99.90
8611;DHT22;4343;53.648;10.098;2023-05-18T06:39:41;9.20;99.90
8611;DHT22;4343;53.648;10.098;2023-05-18T06:42:07;9.20;99.90
8611;DHT22;4343;53.648;10.098;2023-05-18T06:44:32;9.30;99.90
8611;DHT22;4343;53.648;10.098;2023-05-18T06:47:00;9.30;99.90
8611;DHT22;4343;53.648;10.098;2023-05-18T06:49:25;9.30;99.90
8611;DHT22;4343;53.648;10.098;2023-05-18T06:51:51;9.40;99.90
8611;DHT22;4343;53.648;10.098;2023-05-18T06:54:16;9.40;99.90
8611;DHT22;4343;53.648;10.098;2023-05-18T06:56:42;9.50;99.90
8611;DHT22;4343;53.648;10.098;2023-05-18T06:59:07;9.50;99.90
8611;DHT22;4343;53.648;10.098;2023-05-18T07:01:33;9.60;99.90
8611;DHT22;4343;53.648;10.098;2023-05-18T07:03:59;9.60;99.90
8611;DHT22;4343;53.648;10.098;2023-05-18T07:06:24;9.70;99.90
8611;DHT22;4343;53.648;10.098;2023-05-18T07:08:50;9.70;99.90
8611;DHT22;4343;53.648;10.098;2023-05-18T07:11:15;9.80;99.90
8611;DHT22;4343;53.648;10.098;2023-05-18T07:13:41;9.80;99.90
8611;DHT22;4343;53.648;10.098;2023-05-18T07:16:07;9.80;99.90
8611;DHT22;4343;53.648;10.098;2023-05-18T07:18:32;9.90;99.90
8611;DHT22;4343;53.648;10.098;2023-05-18T07:20:58;10.00;99.90
8611;DHT22;4343;53.648;10.098;2023-05-18T07:23:23;10.00;99.90
8611;DHT22;4343;53.648;10.098;2023-05-18T07:25:49;10.10;99.90
8611;DHT22;4343;53.648;10.098;2023-05-18T07:28:15;10.10;99.90
8611;DHT22;4343;53.648;10.098;2023-05-18T07:30:40;10.10;99.90
8611;DHT22;4343;53.648;10.098;2023-05-18T07:33:06;10.20;99.90
8611;DHT22;4343;53.648;10.098;2023-05-18T07:35:31;10.20;99.90
8611;DHT22;4343;53.648;10.098;2023-05-18T07:37:57;10.20;99.90
8611;DHT22;4343;53.648;10.098;2023-05-18T07:40:22;10.30;99.90
8611;DHT22;4343;53.648;10.098;2023-05-18T07:42:48;10.30;99.90
8611;DHT22;4343;53.648;10.098;2023-05-18T07:45:13;10.40;99.90
8611;DHT22;4343;53.648;10.098;2023-05-18T07:47:39;10.40;99.90
8611;DHT22;4343;53.648;10.098;2023-05-18T07:50:05;10.40;99.90
8611;DHT22;4343;53.648;10.098;2023-05-18T07:52:31;10.50;99.90
8611;DHT22;4343;53.648;10.098;2023-05-18T07:54:57;10.60;99.90
8611;DHT22;4343;53.648;10.098;2023-05-18T07:57:22;10.70;99.90
8611;DHT22;4343;53.648;10.098;2023-05-18T07:59:49;10.70;99.90
8611;DHT22;4343;53.648;10.098;2023-05-18T08:02:15;10.80;99.90
8611;DHT22;4343;53.648;10.098;2023-05-18T08:04:45;10.90;99.90
8611;DHT22;4343;53.648;10.098;2023-05-18T08:07:10;10.90;99.90
8611;DHT22;4343;53.648;10.098;2023-05-18T08:09:37;11.10;99.90
8611;DHT22;4343;53.648;10.098;2023-05-18T08:12:02;11.10;99.90
8611;DHT22;4343;53.648;10.098;2023-05-18T08:14:28;11.20;99.90
8611;DHT22;4343;53.648;10.098;2023-05-18T08:16:54;11.30;99.90
8611;DHT22;4343;53.648;10.098;2023-05-18T08:19:19;11.40;99.90
8611;DHT22;4343;53.648;10.098;2023-05-18T08:21:44;11.50;99.90
8611;DHT22;4343;53.648;10.098;2023-05-18T08:24:10;11.60;99.90
8611;DHT22;4343;53.648;10.098;2023-05-18T08:26:36;11.60;99.90
8611;DHT22;4343;53.648;10.098;2023-05-18T08:29:02;11.70;99.90
8611;DHT22;4343;53.648;10.098;2023-05-18T08:31:37;11.70;99.90
8611;DHT22;4343;53.648;10.098;2023-05-18T08:34:04;11.70;99.90
8611;DHT22;4343;53.648;10.098;2023-05-18T08:36:31;11.70;99.80
8611;DHT22;4343;53.648;10.098;2023-05-18T08:38:57;11.70;99.80
8611;DHT22;4343;53.648;10.098;2023-05-18T08:42:00;11.70;99.90
8611;DHT22;4343;53.648;10.098;2023-05-18T08:44:55;11.70;99.40
8611;DHT22;4343;53.648;10.098;2023-05-18T08:47:16;11.80;99.70
8611;DHT22;4343;53.648;10.098;2023-05-18T08:49:43;12.00;99.90
8611;DHT22;4343;53.648;10.098;2023-05-18T08:52:14;12.30;99.80
8611;DHT22;4343;53.648;10.098;2023-05-18T08:54:42;12.50;99.90
8611;DHT22;4343;53.648;10.098;2023-05-18T08:57:08;12.70;99.80
8611;DHT22;4343;53.648;10.098;2023-05-18T08:59:39;13.00;99.80
8611;DHT22;4343;53.648;10.098;2023-05-18T09:02:06;13.20;99.50
8611;DHT22;4343;53.648;10.098;2023-05-18T09:04:32;13.50;99.10
8611;DHT22;4343;53.648;10.098;2023-05-18T09:07:03;13.70;98.60
8611;DHT22;4343;53.648;10.098;2023-05-18T09:09:28;13.90;98.30
8611;DHT22;4343;53.648;10.098;2023-05-18T09:11:55;14.10;97.90
8611;DHT22;4343;53.648;10.098;2023-05-18T09:14:21;14.30;98.00
8611;DHT22;4343;53.648;10.098;2023-05-18T09:16:53;14.40;97.80
8611;DHT22;4343;53.648;10.098;2023-05-18T09:19:19;14.60;97.70
8611;DHT22;4343;53.648;10.098;2023-05-18T09:21:45;14.80;97.60
8611;DHT22;4343;53.648;10.098;2023-05-18T09:24:11;14.90;97.10
8611;DHT22;4343;53.648;10.098;2023-05-18T09:26:39;15.00;96.70
8611;DHT22;4343;53.648;10.098;2023-05-18T09:29:16;15.00;96.40
8611;DHT22;4343;53.648;10.098;2023-05-18T09:31:42;15.00;96.40
8611;DHT22;4343;53.648;10.098;2023-05-18T09:34:08;15.00;96.40
8611;DHT22;4343;53.648;10.098;2023-05-18T09:36:34;15.00;96.00
8611;DHT22;4343;53.648;10.098;2023-05-18T09:39:06;14.90;96.00
8611;DHT22;4343;53.648;10.098;2023-05-18T09:41:33;15.00;96.10
8611;DHT22;4343;53.648;10.098;2023-05-18T09:44:01;14.90;95.80
8611;DHT22;4343;53.648;10.098;2023-05-18T09:46:37;15.00;95.80
8611;DHT22;4343;53.648;10.098;2023-05-18T09:49:04;14.90;94.70
8611;DHT22;4343;53.648;10.098;2023-05-18T09:51:30;14.90;94.70
8611;DHT22;4343;53.648;10.098;2023-05-18T09:53:58;14.90;94.90
8611;DHT22;4343;53.648;10.098;2023-05-18T09:56:25;15.00;94.50
8611;DHT22;4343;53.648;10.098;2023-05-18T09:58:52;15.00;94.70
8611;DHT22;4343;53.648;10.098;2023-05-18T10:01:17;15.20;94.80
8611;DHT22;4343;53.648;10.098;2023-05-18T10:03:43;15.30;94.90
8611;DHT22;4343;53.648;10.098;2023-05-18T10:06:12;15.40;94.50
8611;DHT22;4343;53.648;10.098;2023-05-18T10:08:39;15.50;94.60
8611;DHT22;4343;53.648;10.098;2023-05-18T10:11:05;15.60;94.10
8611;DHT22;4343;53.648;10.098;2023-05-18T10:13:32;15.80;94.00
8611;DHT22;4343;53.648;10.098;2023-05-18T10:16:00;15.90;94.20
8611;DHT22;4343;53.648;10.098;2023-05-18T10:18:27;15.90;94.50
8611;DHT22;4343;53.648;10.098;2023-05-18T10:20:55;16.10;94.70
8611;DHT22;4343;53.648;10.098;2023-05-18T10:23:23;16.30;94.70
8611;DHT22;4343;53.648;10.098;2023-05-18T10:25:50;16.50;94.80
8611;DHT22;4343;53.648;10.098;2023-05-18T10:28:26;16.60;94.50
8611;DHT22;4343;53.648;10.098;2023-05-18T10:30:54;16.70;94.00
8611;DHT22;4343;53.648;10.098;2023-05-18T10:33:25;16.80;93.90
8611;DHT22;4343;53.648;10.098;2023-05-18T10:35:52;16.90;93.40
8611;DHT22;4343;53.648;10.098;2023-05-18T10:38:19;17.00;93.10
8611;DHT22;4343;53.648;10.098;2023-05-18T10:40:47;17.10;93.40
8611;DHT22;4343;53.648;10.098;2023-05-18T10:43:12;17.10;92.50
8611;DHT22;4343;53.648;10.098;2023-05-18T10:45:40;17.10;92.70
8611;DHT22;4343;53.648;10.098;2023-05-18T10:48:08;17.20;92.60
8611;DHT22;4343;53.648;10.098;2023-05-18T10:50:37;17.30;92.30
8611;DHT22;4343;53.648;10.098;2023-05-18T10:53:05;17.30;92.20
8611;DHT22;4343;53.648;10.098;2023-05-18T10:55:30;17.30;92.60
8611;DHT22;4343;53.648;10.098;2023-05-18T10:58:02;17.40;91.70
8611;DHT22;4343;53.648;10.098;2023-05-18T11:00:30;17.40;91.50
8611;DHT22;4343;53.648;10.098;2023-05-18T11:02:59;17.50;91.50
8611;DHT22;4343;53.648;10.098;2023-05-18T11:05:25;17.50;91.90
8611;DHT22;4343;53.648;10.098;2023-05-18T11:07:59;17.60;92.40
8611;DHT22;4343;53.648;10.098;2023-05-18T11:10:47;17.80;92.80
8611;DHT22;4343;53.648;10.098;2023-05-18T11:13:14;18.00;92.90
8611;DHT22;4343;53.648;10.098;2023-05-18T11:18:18;18.30;92.80
8611;DHT22;4343;53.648;10.098;2023-05-18T11:20:47;18.40;92.20
8611;DHT22;4343;53.648;10.098;2023-05-18T11:23:12;18.40;91.40
8611;DHT22;4343;53.648;10.098;2023-05-18T11:25:47;18.60;91.40
8611;DHT22;4343;53.648;10.098;2023-05-18T11:28:13;18.60;91.70
8611;DHT22;4343;53.648;10.098;2023-05-18T11:30:43;18.70;91.00
8611;DHT22;4343;53.648;10.098;2023-05-18T11:33:11;18.70;89.60
8611;DHT22;4343;53.648;10.098;2023-05-18T11:35:57;18.80;89.80
8611;DHT22;4343;53.648;10.098;2023-05-18T11:38:47;18.80;90.40
8611;DHT22;4343;53.648;10.098;2023-05-18T11:41:38;18.90;90.50
8611;DHT22;4343;53.648;10.098;2023-05-18T11:46:33;19.10;90.70
8611;DHT22;4343;53.648;10.098;2023-05-18T11:49:03;19.20;89.50
8611;DHT22;4343;53.648;10.098;2023-05-18T11:51:31;19.20;89.00
8611;DHT22;4343;53.648;10.098;2023-05-18T11:53:58;19.30;89.80
8611;DHT22;4343;53.648;10.098;2023-05-18T11:56:25;19.40;87.90
8611;DHT22;4343;53.648;10.098;2023-05-18T11:59:13;19.50;89.00
8611;DHT22;4343;53.648;10.098;2023-05-18T12:01:40;19.60;89.30
8611;DHT22;4343;53.648;10.098;2023-05-18T12:04:08;19.70;87.90
8611;DHT22;4343;53.648;10.098;2023-05-18T12:06:34;19.70;87.80
8611;DHT22;4343;53.648;10.098;2023-05-18T12:09:00;19.90;86.80
8611;DHT22;4343;53.648;10.098;2023-05-18T12:11:26;20.00;87.30
8611;DHT22;4343;53.648;10.098;2023-05-18T12:13:53;20.10;86.10
8611;DHT22;4343;53.648;10.098;2023-05-18T12:16:20;20.10;83.80
8611;DHT22;4343;53.648;10.098;2023-05-18T12:18:49;20.10;83.80
8611;DHT22;4343;53.648;10.098;2023-05-18T12:21:21;20.10;84.30
8611;DHT22;4343;53.648;10.098;2023-05-18T12:23:56;20.10;84.30
8611;DHT22;4343;53.648;10.098;2023-05-18T12:26:21;20.20;84.70
8611;DHT22;4343;53.648;10.098;2023-05-18T12:28:51;20.30;85.10
8611;DHT22;4343;53.648;10.098;2023-05-18T12:31:16;20.40;85.10
8611;DHT22;4343;53.648;10.098;2023-05-18T12:33:42;20.50;85.00
8611;DHT22;4343;53.648;10.098;2023-05-18T12:36:11;20.70;85.60
8611;DHT22;4343;53.648;10.098;2023-05-18T12:38:37;20.80;81.40
8611;DHT22;4343;53.648;10.098;2023-05-18T12:41:03;20.80;82.00
8611;DHT22;4343;53.648;10.098;2023-05-18T12:43:35;20.90;82.50
8611;DHT22;4343;53.648;10.098;2023-05-18T12:46:02;20.90;80.10
8611;DHT22;4343;53.648;10.098;2023-05-18T12:48:35;21.00;80.60
8611;DHT22;4343;53.648;10.098;2023-05-18T12:51:01;21.10;80.70
8611;DHT22;4343;53.648;10.098;2023-05-18T12:53:26;21.20;80.40
8611;DHT22;4343;53.648;10.098;2023-05-18T12:56:04;21.20;80.40
8611;DHT22;4343;53.648;10.098;2023-05-18T12:58:34;21.40;80.80
8611;DHT22;4343;53.648;10.098;2023-05-18T13:01:09;21.60;81.20
8611;DHT22;4343;53.648;10.098;2023-05-18T13:03:37;21.70;81.00
8611;DHT22;4343;53.648;10.098;2023-05-18T13:06:07;21.80;80.50
8611;DHT22;4343;53.648;10.098;2023-05-18T13:08:34;21.90;80.50
8611;DHT22;4343;53.648;10.098;2023-05-18T13:11:07;22.00;80.70
8611;DHT22;4343;53.648;10.098;2023-05-18T13:13:33;22.20;80.30
8611;DHT22;4343;53.648;10.098;2023-05-18T13:15:59;22.20;78.40
8611;DHT22;4343;53.648;10.098;2023-05-18T13:18:26;22.30;78.10
8611;DHT22;4343;53.648;10.098;2023-05-18T13:20:53;22.30;77.90
8611;DHT22;4343;53.648;10.098;2023-05-18T13:23:21;22.40;78.40
8611;DHT22;4343;53.648;10.098;2023-05-18T13:25:47;22.50;78.50
8611;DHT22;4343;53.648;10.098;2023-05-18T13:28:15;22.50;77.40
8611;DHT22;4343;53.648;10.098;2023-05-18T13:30:42;22.40;76.80
8611;DHT22;4343;53.648;10.098;2023-05-18T13:33:09;22.40;77.40
8611;DHT22;4343;53.648;10.098;2023-05-18T13:35:37;22.30;77.30
8611;DHT22;4343;53.648;10.098;2023-05-18T13:38:03;22.30;78.30
8611;DHT22;4343;53.648;10.098;2023-05-18T13:40:29;22.40;78.70
8611;DHT22;4343;53.648;10.098;2023-05-18T13:42:54;22.50;78.10
8611;DHT22;4343;53.648;10.098;2023-05-18T13:45:20;22.50;77.90
8611;DHT22;4343;53.648;10.098;2023-05-18T13:47:48;22.50;76.80
8611;DHT22;4343;53.648;10.098;2023-05-18T13:50:16;22.60;75.50
8611;DHT22;4343;53.648;10.098;2023-05-18T13:52:42;22.60;75.10
8611;DHT22;4343;53.648;10.098;2023-05-18T13:55:08;22.60;75.10
8611;DHT22;4343;53.648;10.098;2023-05-18T13:57:34;22.60;74.40
8611;DHT22;4343;53.648;10.098;2023-05-18T14:00:00;22.60;73.40
8611;DHT22;4343;53.648;10.098;2023-05-18T14:02:38;22.60;73.10
8611;DHT22;4343;53.648;10.098;2023-05-18T14:05:04;22.50;73.10
8611;DHT22;4343;53.648;10.098;2023-05-18T14:07:32;22.50;73.30
8611;DHT22;4343;53.648;10.098;2023-05-18T14:09:57;22.50;74.10
8611;DHT22;4343;53.648;10.098;2023-05-18T14:12:23;22.50;75.00
8611;DHT22;4343;53.648;10.098;2023-05-18T14:14:48;22.50;75.00
8611;DHT22;4343;53.648;10.098;2023-05-18T14:17:14;22.50;74.50
8611;DHT22;4343;53.648;10.098;2023-05-18T14:19:39;22.40;74.40
8611;DHT22;4343;53.648;10.098;2023-05-18T14:22:05;22.20;74.50
8611;DHT22;4343;53.648;10.098;2023-05-18T14:24:30;22.10;74.50
8611;DHT22;4343;53.648;10.098;2023-05-18T14:26:56;21.90;74.20
8611;DHT22;4343;53.648;10.098;2023-05-18T14:29:22;21.50;73.30
8611;DHT22;4343;53.648;10.098;2023-05-18T14:31:48;21.00;73.10
8611;DHT22;4343;53.648;10.098;2023-05-18T14:34:13;20.40;73.80
8611;DHT22;4343;53.648;10.098;2023-05-18T14:36:38;19.40;74.60
8611;DHT22;4343;53.648;10.098;2023-05-18T14:39:04;18.90;77.20
8611;DHT22;4343;53.648;10.098;2023-05-18T14:41:30;18.60;77.30
8611;DHT22;4343;53.648;10.098;2023-05-18T14:43:56;18.20;77.60
8611;DHT22;4343;53.648;10.098;2023-05-18T14:46:21;17.90;79.00
8611;DHT22;4343;53.648;10.098;2023-05-18T14:48:47;17.80;79.80
8611;DHT22;4343;53.648;10.098;2023-05-18T14:51:12;17.60;80.10
8611;DHT22;4343;53.648;10.098;2023-05-18T14:53:40;17.50;80.50
8611;DHT22;4343;53.648;10.098;2023-05-18T14:56:06;17.00;81.20
8611;DHT22;4343;53.648;10.098;2023-05-18T14:58:33;16.80;81.50
8611;DHT22;4343;53.648;10.098;2023-05-18T15:00:59;16.50;81.30
8611;DHT22;4343;53.648;10.098;2023-05-18T15:03:25;16.40;82.30
8611;DHT22;4343;53.648;10.098;2023-05-18T15:05:51;16.30;81.60
8611;DHT22;4343;53.648;10.098;2023-05-18T15:08:16;16.20;81.90
8611;DHT22;4343;53.648;10.098;2023-05-18T15:10:42;16.10;82.90
8611;DHT22;4343;53.648;10.098;2023-05-18T15:13:07;15.90;81.90
8611;DHT22;4343;53.648;10.098;2023-05-18T15:15:33;15.70;82.10
8611;DHT22;4343;53.648;10.098;2023-05-18T15:17:58;15.70;83.20
8611;DHT22;4343;53.648;10.098;2023-05-18T15:20:24;15.60;83.10
8611;DHT22;4343;53.648;10.098;2023-05-18T15:22:51;15.50;82.60
8611;DHT22;4343;53.648;10.098;2023-05-18T15:25:16;15.30;82.50
8611;DHT22;4343;53.648;10.098;2023-05-18T15:27:44;15.30;84.30
8611;DHT22;4343;53.648;10.098;2023-05-18T15:30:10;15.10;84.10
8611;DHT22;4343;53.648;10.098;2023-05-18T15:32:37;15.10;84.30
8611;DHT22;4343;53.648;10.098;2023-05-18T15:35:03;15.00;85.00
8611;DHT22;4343;53.648;10.098;2023-05-18T15:37:29;15.00;85.60
8611;DHT22;4343;53.648;10.098;2023-05-18T15:39:54;15.00;86.30
8611;DHT22;4343;53.648;10.098;2023-05-18T15:42:20;14.90;86.40
8611;DHT22;4343;53.648;10.098;2023-05-18T15:44:45;14.90;87.00
8611;DHT22;4343;53.648;10.098;2023-05-18T15:47:11;15.00;86.40
8611;DHT22;4343;53.648;10.098;2023-05-18T15:49:36;15.00;86.80
8611;DHT22;4343;53.648;10.098;2023-05-18T15:52:02;15.00;85.80
8611;DHT22;4343;53.648;10.098;2023-05-18T15:54:28;14.90;84.90
8611;DHT22;4343;53.648;10.098;2023-05-18T15:56:53;14.90;84.60
8611;DHT22;4343;53.648;10.098;2023-05-18T15:59:19;14.90;85.20
8611;DHT22;4343;53.648;10.098;2023-05-18T16:01:44;14.90;85.80
8611;DHT22;4343;53.648;10.098;2023-05-18T16:04:10;14.90;86.40
8611;DHT22;4343;53.648;10.098;2023-05-18T16:06:35;14.90;87.40